TAM3723 SBCF-SBBR
Flight info
| Callsign | TAM3723 |
|---|---|
| Flight time | 0h 56m |
| Altitude | 36000 |
| Route | GIMPO UZ33 OPGOL |
| Aircraft | A320/M-SDE3FGHIRWY/LB1 |
Departure
| Time | 2026-05-08 21:51 |
|---|---|
| Airport | Tancredo Neves International Airport (SBCF) |
Arrival
| Time | 2026-05-08 22:48 |
|---|---|
| Airport | Presidente Juscelino Kubitschek International Airport (SBBR) |
| Time | Latitude | Longitude | Altitude | Speed | Heading |
|---|---|---|---|---|---|
| 2026-05-08 21:18 | -19.63024 | -43.96665 | 2748 ft | 0 kts | 51° |
| 2026-05-08 21:44 | -19.63030 | -43.96673 | 2748 ft | 2 kts | 51° |
| 2026-05-08 21:45 | -19.63039 | -43.96684 | 2748 ft | 1 kts | 50° |
| 2026-05-08 21:45 | -19.63046 | -43.96692 | 2748 ft | 2 kts | 27° |
| 2026-05-08 21:45 | -19.63061 | -43.96695 | 2748 ft | 2 kts | 348° |
| 2026-05-08 21:45 | -19.63071 | -43.96692 | 2748 ft | 0 kts | 322° |
| 2026-05-08 21:46 | -19.63076 | -43.96686 | 2748 ft | 0 kts | 318° |
| 2026-05-08 21:46 | -19.63076 | -43.96685 | 2748 ft | 0 kts | 318° |
| 2026-05-08 21:47 | -19.63075 | -43.96687 | 2748 ft | 1 kts | 318° |
| 2026-05-08 21:48 | -19.63061 | -43.96702 | 2748 ft | 4 kts | 309° |
| 2026-05-08 21:48 | -19.63038 | -43.96741 | 2748 ft | 7 kts | 302° |
| 2026-05-08 21:48 | -19.63001 | -43.96783 | 2748 ft | 8 kts | 317° |
| 2026-05-08 21:48 | -19.62955 | -43.96828 | 2748 ft | 9 kts | 318° |
| 2026-05-08 21:49 | -19.62902 | -43.96877 | 2748 ft | 10 kts | 319° |
| 2026-05-08 21:49 | -19.62842 | -43.96932 | 2748 ft | 11 kts | 317° |
| 2026-05-08 21:49 | -19.62806 | -43.97011 | 2748 ft | 12 kts | 284° |
| 2026-05-08 21:49 | -19.62821 | -43.97079 | 2748 ft | 9 kts | 231° |
| 2026-05-08 21:50 | -19.62868 | -43.97134 | 2748 ft | 10 kts | 229° |
| 2026-05-08 21:50 | -19.62919 | -43.97196 | 2748 ft | 11 kts | 229° |
| 2026-05-08 21:50 | -19.62973 | -43.97241 | 2748 ft | 8 kts | 168° |
| 2026-05-08 21:50 | -19.63042 | -43.97181 | 2748 ft | 33 kts | 138° |
| 2026-05-08 21:51 | -19.63407 | -43.96843 | 2748 ft | 102 kts | 139° |
| 2026-05-08 21:51 | -19.64100 | -43.96203 | 2750 ft | 160 kts | 139° |
| 2026-05-08 21:51 | -19.65006 | -43.95380 | 3156 ft | 173 kts | 139° |
| 2026-05-08 21:51 | -19.65919 | -43.94554 | 3658 ft | 177 kts | 137° |
| 2026-05-08 21:52 | -19.66887 | -43.93658 | 3957 ft | 193 kts | 137° |
| 2026-05-08 21:52 | -19.67943 | -43.92680 | 4264 ft | 209 kts | 137° |
| 2026-05-08 21:52 | -19.69188 | -43.91739 | 4476 ft | 234 kts | 160° |
| 2026-05-08 21:52 | -19.70821 | -43.91640 | 5082 ft | 240 kts | 195° |
| 2026-05-08 21:53 | -19.72249 | -43.92502 | 5756 ft | 241 kts | 230° |
| 2026-05-08 21:53 | -19.73208 | -43.93928 | 6420 ft | 243 kts | 242° |
| 2026-05-08 21:53 | -19.73748 | -43.95612 | 7090 ft | 241 kts | 272° |
| 2026-05-08 21:53 | -19.73384 | -43.97285 | 7794 ft | 236 kts | 303° |
| 2026-05-08 21:54 | -19.72292 | -43.98521 | 8502 ft | 233 kts | 332° |
| 2026-05-08 21:54 | -19.70793 | -43.99164 | 9243 ft | 233 kts | 342° |
| 2026-05-08 21:54 | -19.69257 | -43.99719 | 9969 ft | 237 kts | 342° |
| 2026-05-08 21:54 | -19.67697 | -44.00299 | 10706 ft | 239 kts | 342° |
| 2026-05-08 21:55 | -19.66128 | -44.00892 | 11414 ft | 242 kts | 342° |
| 2026-05-08 21:55 | -19.64543 | -44.01496 | 12103 ft | 244 kts | 342° |
| 2026-05-08 21:55 | -19.62937 | -44.02110 | 12769 ft | 246 kts | 342° |
| 2026-05-08 21:56 | -19.59688 | -44.03351 | 14006 ft | 252 kts | 342° |
| 2026-05-08 21:56 | -19.58034 | -44.03983 | 14597 ft | 255 kts | 342° |
| 2026-05-08 21:56 | -19.56353 | -44.04627 | 15180 ft | 258 kts | 341° |
| 2026-05-08 21:56 | -19.54656 | -44.05258 | 15677 ft | 264 kts | 342° |
| 2026-05-08 21:57 | -19.52863 | -44.05886 | 15953 ft | 279 kts | 343° |
| 2026-05-08 21:57 | -19.50940 | -44.06555 | 16223 ft | 295 kts | 343° |
| 2026-05-08 21:57 | -19.48942 | -44.07253 | 16480 ft | 310 kts | 343° |
| 2026-05-08 21:57 | -19.46859 | -44.07982 | 16754 ft | 323 kts | 342° |
| 2026-05-08 21:58 | -19.44704 | -44.08738 | 17178 ft | 330 kts | 342° |
| 2026-05-08 21:58 | -19.42486 | -44.09528 | 17717 ft | 334 kts | 342° |
| 2026-05-08 21:58 | -19.40289 | -44.10334 | 18254 ft | 337 kts | 341° |
| 2026-05-08 21:58 | -19.38075 | -44.11151 | 18777 ft | 340 kts | 341° |
| 2026-05-08 21:59 | -19.35820 | -44.11981 | 19288 ft | 343 kts | 341° |
| 2026-05-08 21:59 | -19.33557 | -44.12811 | 19767 ft | 346 kts | 341° |
| 2026-05-08 21:59 | -19.31273 | -44.13649 | 20244 ft | 350 kts | 341° |
| 2026-05-08 21:59 | -19.29004 | -44.14587 | 20718 ft | 353 kts | 334° |
| 2026-05-08 22:00 | -19.26862 | -44.15929 | 21194 ft | 357 kts | 324° |
| 2026-05-08 22:00 | -19.24956 | -44.17609 | 21672 ft | 360 kts | 318° |
| 2026-05-08 22:00 | -19.23130 | -44.19412 | 22154 ft | 363 kts | 317° |
| 2026-05-08 22:00 | -19.21280 | -44.21265 | 22623 ft | 366 kts | 317° |
| 2026-05-08 22:01 | -19.19437 | -44.23106 | 23068 ft | 369 kts | 317° |
| 2026-05-08 22:01 | -19.17552 | -44.24983 | 23533 ft | 372 kts | 317° |
| 2026-05-08 22:01 | -19.15653 | -44.26868 | 24012 ft | 374 kts | 316° |
| 2026-05-08 22:01 | -19.13778 | -44.28727 | 24464 ft | 376 kts | 316° |
| 2026-05-08 22:02 | -19.11846 | -44.30642 | 24936 ft | 379 kts | 316° |
| 2026-05-08 22:02 | -19.09921 | -44.32547 | 25394 ft | 381 kts | 316° |
| 2026-05-08 22:02 | -19.07988 | -44.34462 | 25836 ft | 383 kts | 316° |
| 2026-05-08 22:02 | -19.06039 | -44.36391 | 26279 ft | 385 kts | 315° |
| 2026-05-08 22:03 | -19.04065 | -44.38344 | 26727 ft | 387 kts | 315° |
| 2026-05-08 22:03 | -19.02106 | -44.40279 | 27160 ft | 389 kts | 315° |
| 2026-05-08 22:03 | -19.00113 | -44.42247 | 27593 ft | 391 kts | 315° |
| 2026-05-08 22:03 | -18.98142 | -44.44205 | 28008 ft | 393 kts | 315° |
| 2026-05-08 22:04 | -18.96155 | -44.46193 | 28419 ft | 395 kts | 314° |
| 2026-05-08 22:04 | -18.94143 | -44.48211 | 28835 ft | 397 kts | 314° |
| 2026-05-08 22:04 | -18.92134 | -44.50228 | 29215 ft | 399 kts | 314° |
| 2026-05-08 22:04 | -18.90112 | -44.52256 | 29585 ft | 401 kts | 314° |
| 2026-05-08 22:05 | -18.88085 | -44.54290 | 29940 ft | 404 kts | 314° |
| 2026-05-08 22:05 | -18.86049 | -44.56332 | 30270 ft | 406 kts | 314° |
| 2026-05-08 22:05 | -18.83977 | -44.58410 | 30598 ft | 409 kts | 314° |
| 2026-05-08 22:05 | -18.81916 | -44.60475 | 30927 ft | 411 kts | 313° |
| 2026-05-08 22:06 | -18.79831 | -44.62564 | 31266 ft | 412 kts | 313° |
| 2026-05-08 22:06 | -18.77775 | -44.64622 | 31571 ft | 414 kts | 313° |
| 2026-05-08 22:06 | -18.75669 | -44.66732 | 31870 ft | 416 kts | 314° |
| 2026-05-08 22:06 | -18.73551 | -44.68852 | 32165 ft | 418 kts | 314° |
| 2026-05-08 22:07 | -18.71438 | -44.70966 | 32443 ft | 421 kts | 314° |
| 2026-05-08 22:07 | -18.69299 | -44.73104 | 32728 ft | 423 kts | 314° |
| 2026-05-08 22:07 | -18.67164 | -44.75238 | 33001 ft | 424 kts | 313° |
| 2026-05-08 22:07 | -18.65013 | -44.77386 | 33299 ft | 426 kts | 313° |
| 2026-05-08 22:08 | -18.62862 | -44.79533 | 33584 ft | 428 kts | 313° |
| 2026-05-08 22:08 | -18.60708 | -44.81684 | 33858 ft | 429 kts | 313° |
| 2026-05-08 22:08 | -18.58536 | -44.83850 | 34125 ft | 431 kts | 313° |
| 2026-05-08 22:08 | -18.56354 | -44.86028 | 34381 ft | 433 kts | 313° |
| 2026-05-08 22:09 | -18.54146 | -44.88229 | 34642 ft | 434 kts | 313° |
| 2026-05-08 22:09 | -18.51964 | -44.90405 | 34892 ft | 435 kts | 313° |
| 2026-05-08 22:09 | -18.49768 | -44.92593 | 35121 ft | 436 kts | 313° |
| 2026-05-08 22:09 | -18.47559 | -44.94794 | 35355 ft | 437 kts | 313° |
| 2026-05-08 22:10 | -18.45359 | -44.96986 | 35593 ft | 437 kts | 313° |
| 2026-05-08 22:10 | -18.43160 | -44.99175 | 35851 ft | 437 kts | 312° |
| 2026-05-08 22:10 | -18.40950 | -45.01374 | 36051 ft | 438 kts | 312° |
| 2026-05-08 22:11 | -18.36480 | -45.05827 | 36115 ft | 445 kts | 312° |
| 2026-05-08 22:11 | -18.31967 | -45.10313 | 36112 ft | 450 kts | 313° |
| 2026-05-08 22:12 | -18.27405 | -45.14844 | 36110 ft | 450 kts | 313° |
| 2026-05-08 22:12 | -18.22842 | -45.19373 | 36109 ft | 450 kts | 313° |
| 2026-05-08 22:13 | -18.18287 | -45.23892 | 36105 ft | 451 kts | 313° |
| 2026-05-08 22:13 | -18.13715 | -45.28429 | 36105 ft | 451 kts | 312° |
| 2026-05-08 22:14 | -18.09157 | -45.32949 | 36107 ft | 451 kts | 312° |
| 2026-05-08 22:14 | -18.04595 | -45.37465 | 36105 ft | 451 kts | 313° |
| 2026-05-08 22:15 | -18.00027 | -45.41966 | 36114 ft | 450 kts | 313° |
| 2026-05-08 22:15 | -17.95466 | -45.46465 | 36115 ft | 450 kts | 313° |
| 2026-05-08 22:16 | -17.90899 | -45.50973 | 36124 ft | 450 kts | 313° |
| 2026-05-08 22:16 | -17.86351 | -45.55460 | 36131 ft | 450 kts | 313° |
| 2026-05-08 22:17 | -17.81798 | -45.59951 | 36131 ft | 450 kts | 313° |
| 2026-05-08 22:17 | -17.77232 | -45.64452 | 36129 ft | 450 kts | 313° |
| 2026-05-08 22:18 | -17.72651 | -45.68962 | 36122 ft | 449 kts | 313° |
| 2026-05-08 22:18 | -17.68096 | -45.73448 | 36120 ft | 449 kts | 313° |
| 2026-05-08 22:19 | -17.63538 | -45.77935 | 36112 ft | 450 kts | 313° |
| 2026-05-08 22:19 | -17.59000 | -45.82398 | 36109 ft | 449 kts | 313° |
| 2026-05-08 22:20 | -17.54446 | -45.86876 | 36100 ft | 449 kts | 313° |
| 2026-05-08 22:20 | -17.49855 | -45.91372 | 36091 ft | 450 kts | 313° |
| 2026-05-08 22:21 | -17.45281 | -45.95839 | 36091 ft | 449 kts | 313° |
| 2026-05-08 22:21 | -17.40714 | -46.00305 | 36084 ft | 450 kts | 313° |
| 2026-05-08 22:22 | -17.36142 | -46.04779 | 36078 ft | 450 kts | 313° |
| 2026-05-08 22:22 | -17.31575 | -46.09246 | 36077 ft | 450 kts | 313° |
| 2026-05-08 22:23 | -17.27017 | -46.13699 | 36083 ft | 450 kts | 313° |
| 2026-05-08 22:23 | -17.22428 | -46.18180 | 36086 ft | 450 kts | 313° |
| 2026-05-08 22:24 | -17.17860 | -46.22641 | 36083 ft | 450 kts | 313° |
| 2026-05-08 22:24 | -17.13286 | -46.27102 | 36083 ft | 449 kts | 313° |
| 2026-05-08 22:25 | -17.08719 | -46.31552 | 36083 ft | 449 kts | 313° |
| 2026-05-08 22:25 | -17.04155 | -46.36002 | 36082 ft | 449 kts | 313° |
| 2026-05-08 22:26 | -16.99586 | -46.40452 | 36082 ft | 449 kts | 313° |
| 2026-05-08 22:26 | -16.95011 | -46.44909 | 36082 ft | 449 kts | 313° |
| 2026-05-08 22:27 | -16.90435 | -46.49359 | 36084 ft | 449 kts | 313° |
| 2026-05-08 22:27 | -16.86062 | -46.53957 | 36083 ft | 446 kts | 308° |
| 2026-05-08 22:28 | -16.82175 | -46.59004 | 36084 ft | 444 kts | 302° |
| 2026-05-08 22:28 | -16.78867 | -46.64377 | 35974 ft | 442 kts | 296° |
| 2026-05-08 22:28 | -16.77381 | -46.67218 | 35686 ft | 442 kts | 296° |
| 2026-05-08 22:29 | -16.75944 | -46.70017 | 35368 ft | 442 kts | 295° |
| 2026-05-08 22:29 | -16.74489 | -46.72859 | 34793 ft | 444 kts | 296° |
| 2026-05-08 22:29 | -16.73046 | -46.75678 | 34006 ft | 446 kts | 296° |
| 2026-05-08 22:29 | -16.71581 | -46.78536 | 33203 ft | 445 kts | 296° |
| 2026-05-08 22:30 | -16.70140 | -46.81340 | 32682 ft | 439 kts | 296° |
| 2026-05-08 22:30 | -16.68705 | -46.84132 | 32150 ft | 434 kts | 296° |
| 2026-05-08 22:30 | -16.67281 | -46.86898 | 31648 ft | 429 kts | 297° |
| 2026-05-08 22:30 | -16.65880 | -46.89622 | 31135 ft | 425 kts | 297° |
| 2026-05-08 22:31 | -16.64500 | -46.92305 | 30633 ft | 421 kts | 297° |
| 2026-05-08 22:31 | -16.63120 | -46.94985 | 30134 ft | 417 kts | 297° |
| 2026-05-08 22:31 | -16.61769 | -46.97607 | 29648 ft | 413 kts | 297° |
| 2026-05-08 22:31 | -16.60426 | -47.00214 | 29163 ft | 409 kts | 297° |
| 2026-05-08 22:32 | -16.59091 | -47.02803 | 28669 ft | 405 kts | 298° |
| 2026-05-08 22:32 | -16.57749 | -47.05404 | 28149 ft | 402 kts | 298° |
| 2026-05-08 22:32 | -16.56438 | -47.07946 | 27619 ft | 399 kts | 298° |
| 2026-05-08 22:32 | -16.55138 | -47.10464 | 27106 ft | 396 kts | 298° |
| 2026-05-08 22:33 | -16.53842 | -47.12974 | 26582 ft | 394 kts | 298° |
| 2026-05-08 22:33 | -16.52541 | -47.15493 | 26049 ft | 392 kts | 298° |
| 2026-05-08 22:33 | -16.51260 | -47.17973 | 25521 ft | 390 kts | 298° |
| 2026-05-08 22:33 | -16.49972 | -47.20464 | 24991 ft | 389 kts | 298° |
| 2026-05-08 22:34 | -16.48694 | -47.22937 | 24477 ft | 387 kts | 298° |
| 2026-05-08 22:34 | -16.47420 | -47.25399 | 23946 ft | 386 kts | 298° |
| 2026-05-08 22:34 | -16.46148 | -47.27857 | 23423 ft | 385 kts | 298° |
| 2026-05-08 22:34 | -16.44893 | -47.30281 | 22912 ft | 384 kts | 298° |
| 2026-05-08 22:35 | -16.43624 | -47.32731 | 22396 ft | 383 kts | 299° |
| 2026-05-08 22:35 | -16.42370 | -47.35153 | 21902 ft | 382 kts | 299° |
| 2026-05-08 22:35 | -16.41107 | -47.37590 | 21404 ft | 381 kts | 299° |
| 2026-05-08 22:35 | -16.39850 | -47.40014 | 20904 ft | 380 kts | 299° |
| 2026-05-08 22:36 | -16.38594 | -47.42437 | 20403 ft | 380 kts | 299° |
| 2026-05-08 22:36 | -16.37356 | -47.44824 | 19909 ft | 379 kts | 299° |
| 2026-05-08 22:36 | -16.36100 | -47.47245 | 19403 ft | 378 kts | 299° |
| 2026-05-08 22:36 | -16.34845 | -47.49662 | 18893 ft | 378 kts | 299° |
| 2026-05-08 22:37 | -16.33602 | -47.52058 | 18383 ft | 378 kts | 300° |
| 2026-05-08 22:37 | -16.32366 | -47.54436 | 17879 ft | 377 kts | 300° |
| 2026-05-08 22:37 | -16.31113 | -47.56847 | 17372 ft | 376 kts | 300° |
| 2026-05-08 22:37 | -16.29880 | -47.59218 | 16879 ft | 376 kts | 300° |
| 2026-05-08 22:38 | -16.28640 | -47.61602 | 16379 ft | 375 kts | 300° |
| 2026-05-08 22:38 | -16.27404 | -47.63978 | 15879 ft | 374 kts | 300° |
| 2026-05-08 22:38 | -16.26156 | -47.66374 | 15374 ft | 373 kts | 300° |
| 2026-05-08 22:38 | -16.24937 | -47.68715 | 14878 ft | 371 kts | 300° |
| 2026-05-08 22:39 | -16.23700 | -47.71089 | 14376 ft | 370 kts | 300° |
| 2026-05-08 22:39 | -16.22482 | -47.73428 | 13877 ft | 368 kts | 300° |
| 2026-05-08 22:39 | -16.21283 | -47.75732 | 13377 ft | 366 kts | 300° |
| 2026-05-08 22:39 | -16.20069 | -47.78079 | 12860 ft | 364 kts | 300° |
| 2026-05-08 22:40 | -16.18897 | -47.80360 | 12349 ft | 352 kts | 300° |
| 2026-05-08 22:40 | -16.17546 | -47.82386 | 11824 ft | 337 kts | 318° |
| 2026-05-08 22:40 | -16.15628 | -47.83731 | 11306 ft | 330 kts | 339° |
| 2026-05-08 22:40 | -16.13454 | -47.84461 | 10800 ft | 325 kts | 346° |
| 2026-05-08 22:41 | -16.11273 | -47.85031 | 10284 ft | 323 kts | 348° |
| 2026-05-08 22:41 | -16.09092 | -47.85563 | 9766 ft | 320 kts | 348° |
| 2026-05-08 22:41 | -16.06925 | -47.86080 | 9240 ft | 315 kts | 348° |
| 2026-05-08 22:41 | -16.04850 | -47.86578 | 8694 ft | 300 kts | 348° |
| 2026-05-08 22:42 | -16.02870 | -47.87060 | 8303 ft | 283 kts | 348° |
| 2026-05-08 22:42 | -16.01005 | -47.87525 | 7993 ft | 266 kts | 348° |
| 2026-05-08 22:42 | -15.99255 | -47.87967 | 7686 ft | 253 kts | 348° |
| 2026-05-08 22:42 | -15.97580 | -47.88460 | 7428 ft | 242 kts | 344° |
| 2026-05-08 22:43 | -15.96019 | -47.89028 | 7204 ft | 231 kts | 342° |
| 2026-05-08 22:43 | -15.94550 | -47.89586 | 7000 ft | 220 kts | 342° |
| 2026-05-08 22:43 | -15.93159 | -47.90208 | 6815 ft | 215 kts | 327° |
| 2026-05-08 22:43 | -15.92261 | -47.91368 | 6716 ft | 206 kts | 293° |
| 2026-05-08 22:44 | -15.92098 | -47.92822 | 6537 ft | 199 kts | 270° |
| 2026-05-08 22:44 | -15.92192 | -47.94228 | 6368 ft | 191 kts | 266° |
| 2026-05-08 22:44 | -15.92318 | -47.95568 | 6200 ft | 182 kts | 266° |
| 2026-05-08 22:44 | -15.92440 | -47.96858 | 5965 ft | 179 kts | 267° |
| 2026-05-08 22:45 | -15.92366 | -47.98121 | 5709 ft | 174 kts | 288° |
| 2026-05-08 22:45 | -15.91817 | -47.99194 | 5468 ft | 166 kts | 316° |
| 2026-05-08 22:45 | -15.90876 | -47.99813 | 5264 ft | 154 kts | 348° |
| 2026-05-08 22:45 | -15.89860 | -47.99837 | 5071 ft | 146 kts | 13° |
| 2026-05-08 22:46 | -15.88875 | -47.99507 | 4784 ft | 147 kts | 38° |
| 2026-05-08 22:46 | -15.88332 | -47.98644 | 4551 ft | 147 kts | 78° |
| 2026-05-08 22:46 | -15.88260 | -47.97581 | 4304 ft | 147 kts | 89° |
| 2026-05-08 22:46 | -15.88227 | -47.96525 | 4070 ft | 147 kts | 86° |
| 2026-05-08 22:47 | -15.88155 | -47.95480 | 3843 ft | 146 kts | 86° |
| 2026-05-08 22:47 | -15.88089 | -47.94421 | 3646 ft | 146 kts | 87° |
| 2026-05-08 22:47 | -15.88024 | -47.93384 | 3512 ft | 139 kts | 87° |
| 2026-05-08 22:47 | -15.87972 | -47.92569 | 3475 ft | 89 kts | 86° |
| 2026-05-08 22:48 | -15.87942 | -47.92101 | 3456 ft | 39 kts | 86° |
| 2026-05-08 22:48 | -15.87899 | -47.91862 | 3451 ft | 32 kts | 65° |
| 2026-05-08 22:48 | -15.87787 | -47.91671 | 3455 ft | 28 kts | 56° |
| 2026-05-08 22:48 | -15.87665 | -47.91553 | 3459 ft | 22 kts | 357° |
| 2026-05-08 22:49 | -15.87528 | -47.91563 | 3468 ft | 18 kts | 356° |
| 2026-05-08 22:49 | -15.87296 | -47.91578 | 3478 ft | 15 kts | 356° |
| 2026-05-08 22:49 | -15.87197 | -47.91586 | 3482 ft | 13 kts | 355° |
| 2026-05-08 22:50 | -15.87112 | -47.91593 | 3484 ft | 11 kts | 354° |
| 2026-05-08 22:50 | -15.87050 | -47.91626 | 3485 ft | 11 kts | 272° |
| 2026-05-08 22:50 | -15.87054 | -47.91707 | 3486 ft | 10 kts | 266° |
| 2026-05-08 22:50 | -15.87059 | -47.91779 | 3487 ft | 9 kts | 266° |
| 2026-05-08 22:51 | -15.87077 | -47.91822 | 3488 ft | 6 kts | 187° |
| 2026-05-08 22:51 | -15.87109 | -47.91819 | 3487 ft | 3 kts | 175° |
| 2026-05-08 22:51 | -15.87118 | -47.91819 | 3487 ft | 0 kts | 175° |